sensor_id;sensor_type;location;lat;lon;timestamp;temperature;humidity
33594;DHT22;19920;52.242;20.940;2022-07-29T00:00:07;16.20;99.90
33594;DHT22;19920;52.242;20.940;2022-07-29T00:02:33;16.20;99.90
33594;DHT22;19920;52.242;20.940;2022-07-29T00:04:59;16.20;99.90
33594;DHT22;19920;52.242;20.940;2022-07-29T00:07:25;16.20;99.90
33594;DHT22;19920;52.242;20.940;2022-07-29T00:09:51;16.20;99.90
33594;DHT22;19920;52.242;20.940;2022-07-29T00:12:16;16.20;99.90
33594;DHT22;19920;52.242;20.940;2022-07-29T00:14:42;16.20;99.90
33594;DHT22;19920;52.242;20.940;2022-07-29T00:17:08;16.10;99.90
33594;DHT22;19920;52.242;20.940;2022-07-29T00:19:34;16.10;99.90
33594;DHT22;19920;52.242;20.940;2022-07-29T00:22:00;16.00;99.90
33594;DHT22;19920;52.242;20.940;2022-07-29T00:24:26;16.00;99.90
33594;DHT22;19920;52.242;20.940;2022-07-29T00:26:52;16.00;99.90
33594;DHT22;19920;52.242;20.940;2022-07-29T00:29:18;16.00;99.90
33594;DHT22;19920;52.242;20.940;2022-07-29T00:31:43;16.00;99.90
33594;DHT22;19920;52.242;20.940;2022-07-29T00:34:09;16.00;99.90
33594;DHT22;19920;52.242;20.940;2022-07-29T00:36:55;15.90;99.90
33594;DHT22;19920;52.242;20.940;2022-07-29T00:39:20;15.90;99.90
33594;DHT22;19920;52.242;20.940;2022-07-29T00:41:46;15.90;99.90
33594;DHT22;19920;52.242;20.940;2022-07-29T00:44:12;15.90;99.90
33594;DHT22;19920;52.242;20.940;2022-07-29T00:46:37;15.90;99.90
33594;DHT22;19920;52.242;20.940;2022-07-29T00:49:03;15.90;99.90
33594;DHT22;19920;52.242;20.940;2022-07-29T00:51:29;15.90;99.90
33594;DHT22;19920;52.242;20.940;2022-07-29T00:53:56;15.90;99.90
33594;DHT22;19920;52.242;20.940;2022-07-29T00:56:22;15.90;99.90
33594;DHT22;19920;52.242;20.940;2022-07-29T00:58:48;15.90;99.90
33594;DHT22;19920;52.242;20.940;2022-07-29T01:01:15;15.80;99.90
33594;DHT22;19920;52.242;20.940;2022-07-29T01:03:41;15.80;99.90
33594;DHT22;19920;52.242;20.940;2022-07-29T01:06:06;15.80;99.90
33594;DHT22;19920;52.242;20.940;2022-07-29T01:08:32;15.80;99.90
33594;DHT22;19920;52.242;20.940;2022-07-29T01:10:59;15.70;99.90
33594;DHT22;19920;52.242;20.940;2022-07-29T01:13:26;15.70;99.90
33594;DHT22;19920;52.242;20.940;2022-07-29T01:16:04;15.70;99.90
33594;DHT22;19920;52.242;20.940;2022-07-29T01:18:34;15.70;99.90
33594;DHT22;19920;52.242;20.940;2022-07-29T01:26:44;15.70;99.90
33594;DHT22;19920;52.242;20.940;2022-07-29T01:29:30;15.70;99.90
33594;DHT22;19920;52.242;20.940;2022-07-29T01:32:21;15.70;99.90
33594;DHT22;19920;52.242;20.940;2022-07-29T01:34:57;15.60;99.90
33594;DHT22;19920;52.242;20.940;2022-07-29T01:40:14;15.70;99.90
33594;DHT22;19920;52.242;20.940;2022-07-29T01:42:44;15.70;99.90
33594;DHT22;19920;52.242;20.940;2022-07-29T01:48:16;15.70;99.90
33594;DHT22;19920;52.242;20.940;2022-07-29T01:53:44;15.60;99.90
33594;DHT22;19920;52.242;20.940;2022-07-29T01:56:12;15.60;99.90
33594;DHT22;19920;52.242;20.940;2022-07-29T01:58:40;15.60;99.90
33594;DHT22;19920;52.242;20.940;2022-07-29T02:01:08;15.60;99.90
33594;DHT22;19920;52.242;20.940;2022-07-29T02:03:34;15.60;99.90
33594;DHT22;19920;52.242;20.940;2022-07-29T02:06:03;15.50;99.90
33594;DHT22;19920;52.242;20.940;2022-07-29T02:08:31;15.50;99.90
33594;DHT22;19920;52.242;20.940;2022-07-29T02:10:59;15.50;99.90
33594;DHT22;19920;52.242;20.940;2022-07-29T02:13:26;15.50;99.90
33594;DHT22;19920;52.242;20.940;2022-07-29T02:15:53;15.40;99.90
33594;DHT22;19920;52.242;20.940;2022-07-29T02:18:22;15.40;99.90
33594;DHT22;19920;52.242;20.940;2022-07-29T02:20:52;15.40;99.90
33594;DHT22;19920;52.242;20.940;2022-07-29T02:23:22;15.40;99.90
33594;DHT22;19920;52.242;20.940;2022-07-29T02:25:49;15.40;99.90
33594;DHT22;19920;52.242;20.940;2022-07-29T02:28:17;15.40;99.90
33594;DHT22;19920;52.242;20.940;2022-07-29T02:30:45;15.30;99.90
33594;DHT22;19920;52.242;20.940;2022-07-29T02:33:14;15.40;99.90
33594;DHT22;19920;52.242;20.940;2022-07-29T02:35:42;15.40;99.90
33594;DHT22;19920;52.242;20.940;2022-07-29T02:38:13;15.40;99.90
33594;DHT22;19920;52.242;20.940;2022-07-29T02:41:01;15.40;99.90
33594;DHT22;19920;52.242;20.940;2022-07-29T02:43:30;15.30;99.90
33594;DHT22;19920;52.242;20.940;2022-07-29T02:45:56;15.30;99.90
33594;DHT22;19920;52.242;20.940;2022-07-29T02:48:32;15.30;99.90
33594;DHT22;19920;52.242;20.940;2022-07-29T02:51:06;15.30;99.90
33594;DHT22;19920;52.242;20.940;2022-07-29T02:53:34;15.30;99.90
33594;DHT22;19920;52.242;20.940;2022-07-29T02:56:06;15.30;99.90
33594;DHT22;19920;52.242;20.940;2022-07-29T02:58:42;15.30;99.90
33594;DHT22;19920;52.242;20.940;2022-07-29T03:01:16;15.40;99.90
33594;DHT22;19920;52.242;20.940;2022-07-29T03:03:44;15.30;99.90
33594;DHT22;19920;52.242;20.940;2022-07-29T03:06:13;15.30;99.90
33594;DHT22;19920;52.242;20.940;2022-07-29T03:08:40;15.30;99.90
33594;DHT22;19920;52.242;20.940;2022-07-29T03:11:07;15.30;99.90
33594;DHT22;19920;52.242;20.940;2022-07-29T03:13:35;15.30;99.90
33594;DHT22;19920;52.242;20.940;2022-07-29T03:16:01;15.30;99.90
33594;DHT22;19920;52.242;20.940;2022-07-29T03:18:28;15.40;99.90
33594;DHT22;19920;52.242;20.940;2022-07-29T03:20:54;15.40;99.90
33594;DHT22;19920;52.242;20.940;2022-07-29T03:23:21;15.40;99.90
33594;DHT22;19920;52.242;20.940;2022-07-29T03:25:49;15.50;99.90
33594;DHT22;19920;52.242;20.940;2022-07-29T03:28:14;15.50;99.90
33594;DHT22;19920;52.242;20.940;2022-07-29T03:30:40;15.50;99.90
33594;DHT22;19920;52.242;20.940;2022-07-29T03:33:06;15.50;99.90
33594;DHT22;19920;52.242;20.940;2022-07-29T03:35:32;15.50;99.90
33594;DHT22;19920;52.242;20.940;2022-07-29T03:37:58;15.50;99.90
33594;DHT22;19920;52.242;20.940;2022-07-29T03:40:30;15.50;99.90
33594;DHT22;19920;52.242;20.940;2022-07-29T03:42:57;15.50;99.90
33594;DHT22;19920;52.242;20.940;2022-07-29T03:45:25;15.50;99.90
33594;DHT22;19920;52.242;20.940;2022-07-29T03:47:55;15.50;99.90
33594;DHT22;19920;52.242;20.940;2022-07-29T03:50:22;15.50;99.90
33594;DHT22;19920;52.242;20.940;2022-07-29T03:52:48;15.60;99.90
33594;DHT22;19920;52.242;20.940;2022-07-29T03:55:15;15.60;99.90
33594;DHT22;19920;52.242;20.940;2022-07-29T03:57:42;15.60;99.90
33594;DHT22;19920;52.242;20.940;2022-07-29T04:00:08;15.60;99.90
33594;DHT22;19920;52.242;20.940;2022-07-29T04:02:35;15.70;99.90
33594;DHT22;19920;52.242;20.940;2022-07-29T04:05:01;15.70;99.90
33594;DHT22;19920;52.242;20.940;2022-07-29T04:07:27;15.70;99.90
33594;DHT22;19920;52.242;20.940;2022-07-29T04:09:52;15.80;99.90
33594;DHT22;19920;52.242;20.940;2022-07-29T04:12:18;15.80;99.90
33594;DHT22;19920;52.242;20.940;2022-07-29T04:14:44;15.80;99.90
33594;DHT22;19920;52.242;20.940;2022-07-29T04:17:09;15.90;99.90
33594;DHT22;19920;52.242;20.940;2022-07-29T04:19:35;15.90;99.90
33594;DHT22;19920;52.242;20.940;2022-07-29T04:22:01;15.90;99.90
33594;DHT22;19920;52.242;20.940;2022-07-29T04:24:27;16.00;99.90
33594;DHT22;19920;52.242;20.940;2022-07-29T04:26:53;16.00;99.90
33594;DHT22;19920;52.242;20.940;2022-07-29T04:29:19;16.10;99.90
33594;DHT22;19920;52.242;20.940;2022-07-29T04:31:45;16.20;99.90
33594;DHT22;19920;52.242;20.940;2022-07-29T04:34:11;16.30;99.90
33594;DHT22;19920;52.242;20.940;2022-07-29T04:36:37;16.30;99.90
33594;DHT22;19920;52.242;20.940;2022-07-29T04:39:03;16.40;99.90
33594;DHT22;19920;52.242;20.940;2022-07-29T04:41:29;16.40;99.90
33594;DHT22;19920;52.242;20.940;2022-07-29T04:43:54;16.40;99.90
33594;DHT22;19920;52.242;20.940;2022-07-29T04:46:20;16.40;99.90
33594;DHT22;19920;52.242;20.940;2022-07-29T04:48:46;16.50;99.90
33594;DHT22;19920;52.242;20.940;2022-07-29T04:51:14;16.50;99.90
33594;DHT22;19920;52.242;20.940;2022-07-29T04:53:39;16.60;99.90
33594;DHT22;19920;52.242;20.940;2022-07-29T04:56:05;16.60;99.90
33594;DHT22;19920;52.242;20.940;2022-07-29T04:58:33;16.70;99.90
33594;DHT22;19920;52.242;20.940;2022-07-29T05:00:59;16.70;99.90
33594;DHT22;19920;52.242;20.940;2022-07-29T05:03:24;16.70;99.90
33594;DHT22;19920;52.242;20.940;2022-07-29T05:05:50;16.80;99.90
33594;DHT22;19920;52.242;20.940;2022-07-29T05:08:16;16.80;99.90
33594;DHT22;19920;52.242;20.940;2022-07-29T05:10:41;16.80;99.90
33594;DHT22;19920;52.242;20.940;2022-07-29T05:13:07;16.90;99.90
33594;DHT22;19920;52.242;20.940;2022-07-29T05:15:34;17.00;99.90
33594;DHT22;19920;52.242;20.940;2022-07-29T05:18:00;17.00;99.90
33594;DHT22;19920;52.242;20.940;2022-07-29T05:20:26;17.00;99.90
33594;DHT22;19920;52.242;20.940;2022-07-29T05:22:55;17.10;99.90
33594;DHT22;19920;52.242;20.940;2022-07-29T05:25:21;17.20;99.90
33594;DHT22;19920;52.242;20.940;2022-07-29T05:27:47;17.30;99.90
33594;DHT22;19920;52.242;20.940;2022-07-29T05:30:13;17.40;99.90
33594;DHT22;19920;52.242;20.940;2022-07-29T05:32:38;17.50;99.90
33594;DHT22;19920;52.242;20.940;2022-07-29T05:35:04;17.60;99.90
33594;DHT22;19920;52.242;20.940;2022-07-29T05:37:30;17.60;99.90
33594;DHT22;19920;52.242;20.940;2022-07-29T05:39:56;17.60;99.90
33594;DHT22;19920;52.242;20.940;2022-07-29T05:42:21;17.70;99.90
33594;DHT22;19920;52.242;20.940;2022-07-29T05:44:47;17.70;99.90
33594;DHT22;19920;52.242;20.940;2022-07-29T05:47:13;17.70;99.90
33594;DHT22;19920;52.242;20.940;2022-07-29T05:49:39;17.80;99.90
33594;DHT22;19920;52.242;20.940;2022-07-29T05:52:05;17.80;99.90
33594;DHT22;19920;52.242;20.940;2022-07-29T05:54:30;17.80;99.90
33594;DHT22;19920;52.242;20.940;2022-07-29T05:56:56;17.90;99.90
33594;DHT22;19920;52.242;20.940;2022-07-29T05:59:22;17.90;99.90
33594;DHT22;19920;52.242;20.940;2022-07-29T06:01:47;18.00;99.90
33594;DHT22;19920;52.242;20.940;2022-07-29T06:04:13;18.10;99.90
33594;DHT22;19920;52.242;20.940;2022-07-29T06:06:39;18.20;99.90
33594;DHT22;19920;52.242;20.940;2022-07-29T06:09:04;18.30;99.90
33594;DHT22;19920;52.242;20.940;2022-07-29T06:11:30;18.40;99.90
33594;DHT22;19920;52.242;20.940;2022-07-29T06:13:56;18.50;99.90
33594;DHT22;19920;52.242;20.940;2022-07-29T06:16:21;18.50;99.90
33594;DHT22;19920;52.242;20.940;2022-07-29T06:18:47;18.50;99.90
33594;DHT22;19920;52.242;20.940;2022-07-29T06:21:13;18.50;99.90
33594;DHT22;19920;52.242;20.940;2022-07-29T06:23:39;18.60;99.90
33594;DHT22;19920;52.242;20.940;2022-07-29T06:26:05;18.70;99.90
33594;DHT22;19920;52.242;20.940;2022-07-29T06:28:32;18.70;99.90
33594;DHT22;19920;52.242;20.940;2022-07-29T06:30:58;18.80;99.90
33594;DHT22;19920;52.242;20.940;2022-07-29T06:33:23;18.90;99.90
33594;DHT22;19920;52.242;20.940;2022-07-29T06:35:49;19.00;99.90
33594;DHT22;19920;52.242;20.940;2022-07-29T06:38:15;19.10;99.90
33594;DHT22;19920;52.242;20.940;2022-07-29T06:40:42;19.10;99.90
33594;DHT22;19920;52.242;20.940;2022-07-29T06:43:39;19.10;99.90
33594;DHT22;19920;52.242;20.940;2022-07-29T06:46:14;19.10;99.90
33594;DHT22;19920;52.242;20.940;2022-07-29T06:48:41;19.30;99.90
33594;DHT22;19920;52.242;20.940;2022-07-29T06:51:08;19.40;99.90
33594;DHT22;19920;52.242;20.940;2022-07-29T06:53:35;19.40;99.90
33594;DHT22;19920;52.242;20.940;2022-07-29T06:56:02;19.50;99.90
33594;DHT22;19920;52.242;20.940;2022-07-29T06:58:29;19.60;99.90
33594;DHT22;19920;52.242;20.940;2022-07-29T07:00:56;19.60;99.90
33594;DHT22;19920;52.242;20.940;2022-07-29T07:03:22;19.70;99.90
33594;DHT22;19920;52.242;20.940;2022-07-29T07:05:48;19.70;99.90
33594;DHT22;19920;52.242;20.940;2022-07-29T07:08:14;19.70;99.90
33594;DHT22;19920;52.242;20.940;2022-07-29T07:10:41;19.70;99.90
33594;DHT22;19920;52.242;20.940;2022-07-29T07:13:07;19.80;99.90
33594;DHT22;19920;52.242;20.940;2022-07-29T07:15:33;19.80;99.90
33594;DHT22;19920;52.242;20.940;2022-07-29T07:17:59;19.80;99.90
33594;DHT22;19920;52.242;20.940;2022-07-29T07:20:25;19.90;99.90
33594;DHT22;19920;52.242;20.940;2022-07-29T07:22:51;20.00;99.90
33594;DHT22;19920;52.242;20.940;2022-07-29T07:25:16;20.00;99.90
33594;DHT22;19920;52.242;20.940;2022-07-29T07:27:43;20.20;99.90
33594;DHT22;19920;52.242;20.940;2022-07-29T07:30:09;20.30;99.90
33594;DHT22;19920;52.242;20.940;2022-07-29T07:32:35;20.30;99.90
33594;DHT22;19920;52.242;20.940;2022-07-29T07:35:05;20.50;99.90
33594;DHT22;19920;52.242;20.940;2022-07-29T07:37:31;20.50;99.90
33594;DHT22;19920;52.242;20.940;2022-07-29T07:39:57;20.60;99.90
33594;DHT22;19920;52.242;20.940;2022-07-29T07:42:23;20.60;99.90
33594;DHT22;19920;52.242;20.940;2022-07-29T07:44:49;20.70;99.90
33594;DHT22;19920;52.242;20.940;2022-07-29T07:47:15;20.80;99.90
33594;DHT22;19920;52.242;20.940;2022-07-29T07:49:46;20.90;99.90
33594;DHT22;19920;52.242;20.940;2022-07-29T07:52:12;21.00;99.90
33594;DHT22;19920;52.242;20.940;2022-07-29T07:54:38;21.20;99.90
33594;DHT22;19920;52.242;20.940;2022-07-29T07:57:03;21.20;99.90
33594;DHT22;19920;52.242;20.940;2022-07-29T07:59:29;21.30;99.90
33594;DHT22;19920;52.242;20.940;2022-07-29T08:01:54;21.30;99.90
33594;DHT22;19920;52.242;20.940;2022-07-29T08:04:20;21.40;99.90
33594;DHT22;19920;52.242;20.940;2022-07-29T08:06:46;21.50;99.90
33594;DHT22;19920;52.242;20.940;2022-07-29T08:09:12;21.60;99.90
33594;DHT22;19920;52.242;20.940;2022-07-29T08:11:37;21.60;99.90
33594;DHT22;19920;52.242;20.940;2022-07-29T08:14:03;21.70;99.90
33594;DHT22;19920;52.242;20.940;2022-07-29T08:16:29;21.70;99.90
33594;DHT22;19920;52.242;20.940;2022-07-29T08:18:54;21.70;99.90
33594;DHT22;19920;52.242;20.940;2022-07-29T08:21:23;21.70;99.90
33594;DHT22;19920;52.242;20.940;2022-07-29T08:23:49;21.60;99.90
33594;DHT22;19920;52.242;20.940;2022-07-29T08:26:17;21.70;99.90
33594;DHT22;19920;52.242;20.940;2022-07-29T08:28:44;21.80;99.90
33594;DHT22;19920;52.242;20.940;2022-07-29T08:31:12;21.90;99.90
33594;DHT22;19920;52.242;20.940;2022-07-29T08:33:38;22.00;99.90
33594;DHT22;19920;52.242;20.940;2022-07-29T08:36:05;22.10;99.90
33594;DHT22;19920;52.242;20.940;2022-07-29T08:38:31;22.10;99.90
33594;DHT22;19920;52.242;20.940;2022-07-29T08:40:56;22.20;99.90
33594;DHT22;19920;52.242;20.940;2022-07-29T08:43:23;22.30;99.90
33594;DHT22;19920;52.242;20.940;2022-07-29T08:45:50;22.40;99.90
33594;DHT22;19920;52.242;20.940;2022-07-29T08:48:20;22.50;99.90
33594;DHT22;19920;52.242;20.940;2022-07-29T08:50:47;22.90;99.90
33594;DHT22;19920;52.242;20.940;2022-07-29T08:53:15;23.30;99.90
33594;DHT22;19920;52.242;20.940;2022-07-29T08:55:45;23.50;99.90
33594;DHT22;19920;52.242;20.940;2022-07-29T08:58:11;23.50;99.90
33594;DHT22;19920;52.242;20.940;2022-07-29T09:00:45;23.40;99.90
33594;DHT22;19920;52.242;20.940;2022-07-29T09:03:16;23.50;99.90
33594;DHT22;19920;52.242;20.940;2022-07-29T09:05:45;23.30;99.90
33594;DHT22;19920;52.242;20.940;2022-07-29T09:08:12;23.30;99.90
33594;DHT22;19920;52.242;20.940;2022-07-29T09:10:38;23.50;99.90
33594;DHT22;19920;52.242;20.940;2022-07-29T09:13:04;23.50;99.90
33594;DHT22;19920;52.242;20.940;2022-07-29T09:15:30;23.60;99.90
33594;DHT22;19920;52.242;20.940;2022-07-29T09:17:56;23.70;99.90
33594;DHT22;19920;52.242;20.940;2022-07-29T09:20:24;23.70;99.90
33594;DHT22;19920;52.242;20.940;2022-07-29T09:22:51;23.80;99.90
33594;DHT22;19920;52.242;20.940;2022-07-29T09:25:37;23.70;99.90
33594;DHT22;19920;52.242;20.940;2022-07-29T09:28:12;23.60;99.90
33594;DHT22;19920;52.242;20.940;2022-07-29T09:30:54;23.60;99.90
33594;DHT22;19920;52.242;20.940;2022-07-29T09:33:22;23.70;99.90
33594;DHT22;19920;52.242;20.940;2022-07-29T09:36:00;24.00;99.90
33594;DHT22;19920;52.242;20.940;2022-07-29T09:38:27;24.00;99.90
33594;DHT22;19920;52.242;20.940;2022-07-29T09:41:01;24.10;99.90
33594;DHT22;19920;52.242;20.940;2022-07-29T09:43:27;24.30;99.90
33594;DHT22;19920;52.242;20.940;2022-07-29T09:45:53;24.40;99.90
33594;DHT22;19920;52.242;20.940;2022-07-29T09:48:21;24.70;99.90
33594;DHT22;19920;52.242;20.940;2022-07-29T09:50:47;25.00;99.90
33594;DHT22;19920;52.242;20.940;2022-07-29T09:53:32;24.90;99.90
33594;DHT22;19920;52.242;20.940;2022-07-29T09:55:58;24.50;99.90
33594;DHT22;19920;52.242;20.940;2022-07-29T09:58:24;24.20;99.90
33594;DHT22;19920;52.242;20.940;2022-07-29T10:00:51;24.20;99.90
33594;DHT22;19920;52.242;20.940;2022-07-29T10:03:18;24.30;99.90
33594;DHT22;19920;52.242;20.940;2022-07-29T10:05:44;24.40;99.90
33594;DHT22;19920;52.242;20.940;2022-07-29T10:08:11;24.30;99.90
33594;DHT22;19920;52.242;20.940;2022-07-29T10:10:42;24.40;99.90
33594;DHT22;19920;52.242;20.940;2022-07-29T10:13:09;24.50;99.90
33594;DHT22;19920;52.242;20.940;2022-07-29T10:15:41;24.60;99.90
33594;DHT22;19920;52.242;20.940;2022-07-29T10:18:11;24.60;99.90
33594;DHT22;19920;52.242;20.940;2022-07-29T10:20:37;24.50;99.90
33594;DHT22;19920;52.242;20.940;2022-07-29T10:23:04;24.70;99.90
33594;DHT22;19920;52.242;20.940;2022-07-29T10:25:30;24.90;99.90
33594;DHT22;19920;52.242;20.940;2022-07-29T10:27:56;25.00;99.90
33594;DHT22;19920;52.242;20.940;2022-07-29T10:30:24;25.10;99.90
33594;DHT22;19920;52.242;20.940;2022-07-29T10:35:37;25.30;99.90
33594;DHT22;19920;52.242;20.940;2022-07-29T10:46:27;25.70;99.90
33594;DHT22;19920;52.242;20.940;2022-07-29T10:49:16;25.50;99.90
33594;DHT22;19920;52.242;20.940;2022-07-29T10:54:38;25.60;99.90
33594;DHT22;19920;52.242;20.940;2022-07-29T11:05:16;26.00;99.90
33594;DHT22;19920;52.242;20.940;2022-07-29T11:10:44;26.20;99.90
33594;DHT22;19920;52.242;20.940;2022-07-29T11:13:10;26.10;99.90
33594;DHT22;19920;52.242;20.940;2022-07-29T11:15:55;26.30;99.90
33594;DHT22;19920;52.242;20.940;2022-07-29T11:18:21;26.30;99.90
33594;DHT22;19920;52.242;20.940;2022-07-29T11:20:49;26.10;99.90
33594;DHT22;19920;52.242;20.940;2022-07-29T11:23:30;25.90;99.90
33594;DHT22;19920;52.242;20.940;2022-07-29T11:26:19;25.90;99.90
33594;DHT22;19920;52.242;20.940;2022-07-29T11:34:32;25.90;99.90
33594;DHT22;19920;52.242;20.940;2022-07-29T11:39:38;25.90;99.90
33594;DHT22;19920;52.242;20.940;2022-07-29T11:45:16;25.90;99.90
33594;DHT22;19920;52.242;20.940;2022-07-29T11:50:13;26.00;99.90
33594;DHT22;19920;52.242;20.940;2022-07-29T11:52:44;25.90;99.90
33594;DHT22;19920;52.242;20.940;2022-07-29T11:55:17;25.90;99.90
33594;DHT22;19920;52.242;20.940;2022-07-29T11:57:54;26.00;99.90
33594;DHT22;19920;52.242;20.940;2022-07-29T12:00:27;26.00;99.90
33594;DHT22;19920;52.242;20.940;2022-07-29T12:02:54;26.00;99.90
33594;DHT22;19920;52.242;20.940;2022-07-29T12:05:20;26.20;99.90
33594;DHT22;19920;52.242;20.940;2022-07-29T12:07:47;26.50;99.90
33594;DHT22;19920;52.242;20.940;2022-07-29T12:10:13;26.70;99.90
33594;DHT22;19920;52.242;20.940;2022-07-29T12:12:39;26.90;99.90
33594;DHT22;19920;52.242;20.940;2022-07-29T12:15:15;26.90;99.90
33594;DHT22;19920;52.242;20.940;2022-07-29T12:17:43;27.00;99.90
33594;DHT22;19920;52.242;20.940;2022-07-29T12:20:09;27.10;99.90
33594;DHT22;19920;52.242;20.940;2022-07-29T12:22:37;26.70;99.90
33594;DHT22;19920;52.242;20.940;2022-07-29T12:25:08;26.60;99.90
33594;DHT22;19920;52.242;20.940;2022-07-29T12:27:35;26.50;99.90
33594;DHT22;19920;52.242;20.940;2022-07-29T12:30:09;27.00;99.90
33594;DHT22;19920;52.242;20.940;2022-07-29T12:32:40;27.40;99.90
33594;DHT22;19920;52.242;20.940;2022-07-29T12:35:14;27.40;99.90
33594;DHT22;19920;52.242;20.940;2022-07-29T12:37:42;27.50;99.90
33594;DHT22;19920;52.242;20.940;2022-07-29T12:40:11;27.40;99.90
33594;DHT22;19920;52.242;20.940;2022-07-29T12:42:38;27.20;99.90
33594;DHT22;19920;52.242;20.940;2022-07-29T12:45:05;26.90;99.90
33594;DHT22;19920;52.242;20.940;2022-07-29T12:47:31;26.90;99.90
33594;DHT22;19920;52.242;20.940;2022-07-29T12:50:13;26.70;99.90
33594;DHT22;19920;52.242;20.940;2022-07-29T12:52:44;26.90;99.90
33594;DHT22;19920;52.242;20.940;2022-07-29T12:55:10;26.70;99.90
33594;DHT22;19920;52.242;20.940;2022-07-29T12:57:49;26.90;99.90
33594;DHT22;19920;52.242;20.940;2022-07-29T13:00:23;26.90;99.90
33594;DHT22;19920;52.242;20.940;2022-07-29T13:02:59;26.80;99.90
33594;DHT22;19920;52.242;20.940;2022-07-29T13:05:43;26.80;99.90
33594;DHT22;19920;52.242;20.940;2022-07-29T13:08:13;26.90;99.90
33594;DHT22;19920;52.242;20.940;2022-07-29T13:10:39;26.90;99.90
33594;DHT22;19920;52.242;20.940;2022-07-29T13:13:09;26.90;99.90
33594;DHT22;19920;52.242;20.940;2022-07-29T13:15:40;27.00;99.90
33594;DHT22;19920;52.242;20.940;2022-07-29T13:18:33;26.60;99.90
33594;DHT22;19920;52.242;20.940;2022-07-29T13:21:11;26.60;99.90
33594;DHT22;19920;52.242;20.940;2022-07-29T13:23:37;26.80;99.90
33594;DHT22;19920;52.242;20.940;2022-07-29T13:26:10;26.70;99.90
33594;DHT22;19920;52.242;20.940;2022-07-29T13:28:37;27.00;99.90
33594;DHT22;19920;52.242;20.940;2022-07-29T13:31:02;27.50;99.90
33594;DHT22;19920;52.242;20.940;2022-07-29T13:33:28;27.70;99.90
33594;DHT22;19920;52.242;20.940;2022-07-29T13:35:54;27.80;99.90
33594;DHT22;19920;52.242;20.940;2022-07-29T13:38:20;27.60;99.90
33594;DHT22;19920;52.242;20.940;2022-07-29T13:40:46;27.70;99.90
33594;DHT22;19920;52.242;20.940;2022-07-29T13:43:11;27.90;99.90
33594;DHT22;19920;52.242;20.940;2022-07-29T13:45:37;28.00;99.90
33594;DHT22;19920;52.242;20.940;2022-07-29T13:48:04;27.70;99.90
33594;DHT22;19920;52.242;20.940;2022-07-29T13:50:30;27.70;99.90
33594;DHT22;19920;52.242;20.940;2022-07-29T13:52:55;27.60;99.90
33594;DHT22;19920;52.242;20.940;2022-07-29T13:55:21;27.70;99.90
33594;DHT22;19920;52.242;20.940;2022-07-29T13:57:47;27.80;99.90
33594;DHT22;19920;52.242;20.940;2022-07-29T14:00:13;28.10;99.90
33594;DHT22;19920;52.242;20.940;2022-07-29T14:02:40;28.50;99.90
33594;DHT22;19920;52.242;20.940;2022-07-29T14:05:07;28.60;99.90
33594;DHT22;19920;52.242;20.940;2022-07-29T14:07:33;28.70;99.90
33594;DHT22;19920;52.242;20.940;2022-07-29T14:09:59;28.60;99.90
33594;DHT22;19920;52.242;20.940;2022-07-29T14:12:24;28.60;99.90
33594;DHT22;19920;52.242;20.940;2022-07-29T14:14:50;28.70;99.90
33594;DHT22;19920;52.242;20.940;2022-07-29T14:17:16;28.80;99.90
33594;DHT22;19920;52.242;20.940;2022-07-29T14:19:42;29.00;99.90
33594;DHT22;19920;52.242;20.940;2022-07-29T14:22:08;28.90;99.90
33594;DHT22;19920;52.242;20.940;2022-07-29T14:24:35;28.30;99.90
33594;DHT22;19920;52.242;20.940;2022-07-29T14:27:00;28.20;99.90
33594;DHT22;19920;52.242;20.940;2022-07-29T14:29:26;28.30;99.90
33594;DHT22;19920;52.242;20.940;2022-07-29T14:31:52;28.40;99.90
33594;DHT22;19920;52.242;20.940;2022-07-29T14:34:18;28.80;99.90
33594;DHT22;19920;52.242;20.940;2022-07-29T14:36:43;29.30;99.90
33594;DHT22;19920;52.242;20.940;2022-07-29T14:39:09;29.70;99.90
33594;DHT22;19920;52.242;20.940;2022-07-29T14:41:35;30.20;99.90
33594;DHT22;19920;52.242;20.940;2022-07-29T14:44:00;30.30;99.90
33594;DHT22;19920;52.242;20.940;2022-07-29T14:46:27;30.00;99.90
33594;DHT22;19920;52.242;20.940;2022-07-29T14:48:53;30.80;99.90
33594;DHT22;19920;52.242;20.940;2022-07-29T14:51:18;31.10;99.90
33594;DHT22;19920;52.242;20.940;2022-07-29T14:53:44;31.80;99.90
33594;DHT22;19920;52.242;20.940;2022-07-29T14:56:10;32.20;99.90
33594;DHT22;19920;52.242;20.940;2022-07-29T14:58:35;32.70;99.20
33594;DHT22;19920;52.242;20.940;2022-07-29T15:01:02;33.30;97.30
33594;DHT22;19920;52.242;20.940;2022-07-29T15:03:27;33.60;94.90
33594;DHT22;19920;52.242;20.940;2022-07-29T15:05:54;33.90;93.70
33594;DHT22;19920;52.242;20.940;2022-07-29T15:08:20;34.30;93.40
33594;DHT22;19920;52.242;20.940;2022-07-29T15:10:46;34.60;93.00
33594;DHT22;19920;52.242;20.940;2022-07-29T15:13:11;34.50;92.10
33594;DHT22;19920;52.242;20.940;2022-07-29T15:15:37;34.80;91.00
33594;DHT22;19920;52.242;20.940;2022-07-29T15:18:04;35.50;91.60
33594;DHT22;19920;52.242;20.940;2022-07-29T15:20:29;35.30;90.70
33594;DHT22;19920;52.242;20.940;2022-07-29T15:22:55;35.10;89.50
33594;DHT22;19920;52.242;20.940;2022-07-29T15:25:22;35.70;89.90
33594;DHT22;19920;52.242;20.940;2022-07-29T15:27:48;35.70;87.80
33594;DHT22;19920;52.242;20.940;2022-07-29T15:30:14;35.90;84.90
33594;DHT22;19920;52.242;20.940;2022-07-29T15:32:42;35.80;84.80
33594;DHT22;19920;52.242;20.940;2022-07-29T15:35:08;34.90;83.80
33594;DHT22;19920;52.242;20.940;2022-07-29T15:37:38;33.90;85.10
33594;DHT22;19920;52.242;20.940;2022-07-29T15:40:06;33.00;86.50
33594;DHT22;19920;52.242;20.940;2022-07-29T15:42:32;32.50;88.20
33594;DHT22;19920;52.242;20.940;2022-07-29T15:45:00;32.50;88.00
33594;DHT22;19920;52.242;20.940;2022-07-29T15:47:28;32.80;87.60
33594;DHT22;19920;52.242;20.940;2022-07-29T15:49:54;32.40;87.90
33594;DHT22;19920;52.242;20.940;2022-07-29T15:52:20;32.50;88.50
33594;DHT22;19920;52.242;20.940;2022-07-29T15:54:46;32.40;88.40
33594;DHT22;19920;52.242;20.940;2022-07-29T15:57:12;32.50;86.20
33594;DHT22;19920;52.242;20.940;2022-07-29T15:59:38;32.10;86.90
33594;DHT22;19920;52.242;20.940;2022-07-29T16:02:03;31.90;87.70
33594;DHT22;19920;52.242;20.940;2022-07-29T16:04:29;31.70;88.70
33594;DHT22;19920;52.242;20.940;2022-07-29T16:06:56;31.60;88.60
33594;DHT22;19920;52.242;20.940;2022-07-29T16:09:22;31.60;89.30
33594;DHT22;19920;52.242;20.940;2022-07-29T16:11:48;31.10;88.30